sensor_id;sensor_type;location;lat;lon;timestamp;pressure;altitude;pressure_sealevel;temperature;humidity
63006;BME280;53704;52.532;6.426;2023-01-28T00:00:23;102992.22;;;0.89;100.00
63006;BME280;53704;52.532;6.426;2023-01-28T00:02:48;102990.38;;;0.92;100.00
63006;BME280;53704;52.532;6.426;2023-01-28T00:05:14;102987.19;;;0.80;100.00
63006;BME280;53704;52.532;6.426;2023-01-28T00:07:40;102984.63;;;0.77;100.00
63006;BME280;53704;52.532;6.426;2023-01-28T00:10:05;102999.41;;;0.86;100.00
63006;BME280;53704;52.532;6.426;2023-01-28T00:12:31;102992.97;;;0.93;100.00
63006;BME280;53704;52.532;6.426;2023-01-28T00:14:56;102990.88;;;1.04;100.00
63006;BME280;53704;52.532;6.426;2023-01-28T00:17:22;102991.22;;;0.94;100.00
63006;BME280;53704;52.532;6.426;2023-01-28T00:19:47;103004.09;;;0.78;100.00
63006;BME280;53704;52.532;6.426;2023-01-28T00:22:12;103006.16;;;0.66;100.00
63006;BME280;53704;52.532;6.426;2023-01-28T00:24:38;103004.00;;;0.81;100.00
63006;BME280;53704;52.532;6.426;2023-01-28T00:27:03;103003.41;;;0.69;100.00
63006;BME280;53704;52.532;6.426;2023-01-28T00:29:29;103007.94;;;0.66;100.00
63006;BME280;53704;52.532;6.426;2023-01-28T00:31:54;103004.41;;;0.67;100.00
63006;BME280;53704;52.532;6.426;2023-01-28T00:34:20;103007.09;;;0.65;100.00
63006;BME280;53704;52.532;6.426;2023-01-28T00:36:45;103003.47;;;0.68;100.00
63006;BME280;53704;52.532;6.426;2023-01-28T00:39:18;102999.72;;;0.75;100.00
63006;BME280;53704;52.532;6.426;2023-01-28T00:41:43;102996.78;;;0.84;100.00
63006;BME280;53704;52.532;6.426;2023-01-28T00:44:09;102994.63;;;0.97;100.00
63006;BME280;53704;52.532;6.426;2023-01-28T00:46:34;102996.66;;;0.89;100.00
63006;BME280;53704;52.532;6.426;2023-01-28T00:49:00;103001.69;;;0.98;100.00
63006;BME280;53704;52.532;6.426;2023-01-28T00:51:25;102990.28;;;1.23;100.00
63006;BME280;53704;52.532;6.426;2023-01-28T00:53:51;102984.25;;;1.18;100.00
63006;BME280;53704;52.532;6.426;2023-01-28T00:56:18;102987.16;;;1.10;100.00
63006;BME280;53704;52.532;6.426;2023-01-28T00:58:44;102984.03;;;0.97;100.00
63006;BME280;53704;52.532;6.426;2023-01-28T01:01:13;102979.72;;;0.93;100.00
63006;BME280;53704;52.532;6.426;2023-01-28T01:03:39;102982.38;;;0.93;100.00
63006;BME280;53704;52.532;6.426;2023-01-28T01:06:05;102982.75;;;1.09;100.00
63006;BME280;53704;52.532;6.426;2023-01-28T01:08:30;102986.25;;;0.83;100.00
63006;BME280;53704;52.532;6.426;2023-01-28T01:11:03;102983.34;;;0.90;100.00
63006;BME280;53704;52.532;6.426;2023-01-28T01:13:29;102983.91;;;0.72;100.00
63006;BME280;53704;52.532;6.426;2023-01-28T01:16:11;102983.81;;;1.03;100.00
63006;BME280;53704;52.532;6.426;2023-01-28T01:18:37;102992.03;;;0.96;100.00
63006;BME280;53704;52.532;6.426;2023-01-28T01:21:08;102998.75;;;1.06;100.00
63006;BME280;53704;52.532;6.426;2023-01-28T01:23:34;103002.91;;;1.15;100.00
63006;BME280;53704;52.532;6.426;2023-01-28T01:25:59;103000.22;;;1.16;100.00
63006;BME280;53704;52.532;6.426;2023-01-28T01:28:26;103001.16;;;1.14;100.00
63006;BME280;53704;52.532;6.426;2023-01-28T01:30:58;103004.94;;;1.06;100.00
63006;BME280;53704;52.532;6.426;2023-01-28T01:33:24;103001.91;;;0.90;100.00
63006;BME280;53704;52.532;6.426;2023-01-28T01:35:53;102998.19;;;0.96;100.00
63006;BME280;53704;52.532;6.426;2023-01-28T01:38:19;103002.81;;;0.89;100.00
63006;BME280;53704;52.532;6.426;2023-01-28T01:40:44;103002.06;;;1.14;100.00
63006;BME280;53704;52.532;6.426;2023-01-28T01:43:20;102996.72;;;1.16;100.00
63006;BME280;53704;52.532;6.426;2023-01-28T01:45:58;103008.59;;;1.02;100.00
63006;BME280;53704;52.532;6.426;2023-01-28T01:48:31;103005.72;;;1.10;100.00
63006;BME280;53704;52.532;6.426;2023-01-28T01:51:03;103003.06;;;1.10;100.00
63006;BME280;53704;52.532;6.426;2023-01-28T01:53:31;103011.00;;;0.82;100.00
63006;BME280;53704;52.532;6.426;2023-01-28T01:56:01;103005.88;;;0.76;100.00
63006;BME280;53704;52.532;6.426;2023-01-28T01:58:30;103011.41;;;0.98;100.00
63006;BME280;53704;52.532;6.426;2023-01-28T02:00:58;103017.69;;;0.95;100.00
63006;BME280;53704;52.532;6.426;2023-01-28T02:06:05;103029.28;;;0.91;100.00
63006;BME280;53704;52.532;6.426;2023-01-28T02:08:32;103022.50;;;1.11;100.00
63006;BME280;53704;52.532;6.426;2023-01-28T02:11:04;103028.63;;;0.84;100.00
63006;BME280;53704;52.532;6.426;2023-01-28T02:13:34;103031.00;;;0.94;100.00
63006;BME280;53704;52.532;6.426;2023-01-28T02:16:02;103017.00;;;1.17;100.00
63006;BME280;53704;52.532;6.426;2023-01-28T02:18:30;103030.09;;;0.93;100.00
63006;BME280;53704;52.532;6.426;2023-01-28T02:24:28;103023.66;;;1.02;100.00
63006;BME280;53704;52.532;6.426;2023-01-28T02:30:32;103030.16;;;1.20;100.00
63006;BME280;53704;52.532;6.426;2023-01-28T02:35:29;103028.00;;;0.76;100.00
63006;BME280;53704;52.532;6.426;2023-01-28T02:38:13;103024.34;;;1.08;100.00
63006;BME280;53704;52.532;6.426;2023-01-28T02:40:43;103022.81;;;1.01;100.00
63006;BME280;53704;52.532;6.426;2023-01-28T02:46:13;103027.09;;;0.46;100.00
63006;BME280;53704;52.532;6.426;2023-01-28T02:48:58;103028.19;;;0.39;100.00
63006;BME280;53704;52.532;6.426;2023-01-28T02:51:38;103022.81;;;0.42;100.00
63006;BME280;53704;52.532;6.426;2023-01-28T02:54:16;103017.47;;;0.43;100.00
63006;BME280;53704;52.532;6.426;2023-01-28T02:56:54;103019.41;;;0.37;100.00
63006;BME280;53704;52.532;6.426;2023-01-28T02:59:35;103016.00;;;0.31;100.00
63006;BME280;53704;52.532;6.426;2023-01-28T03:04:45;103015.75;;;0.41;100.00
63006;BME280;53704;52.532;6.426;2023-01-28T03:07:14;103014.22;;;0.33;100.00
63006;BME280;53704;52.532;6.426;2023-01-28T03:09:43;103026.81;;;0.24;100.00
63006;BME280;53704;52.532;6.426;2023-01-28T03:12:15;103027.72;;;0.24;100.00
63006;BME280;53704;52.532;6.426;2023-01-28T03:15:05;103007.34;;;0.26;100.00
63006;BME280;53704;52.532;6.426;2023-01-28T03:17:56;103009.69;;;0.37;100.00
63006;BME280;53704;52.532;6.426;2023-01-28T03:23:41;103003.75;;;0.29;100.00
63006;BME280;53704;52.532;6.426;2023-01-28T03:26:29;103015.38;;;0.23;100.00
63006;BME280;53704;52.532;6.426;2023-01-28T03:29:16;103017.06;;;0.26;100.00
63006;BME280;53704;52.532;6.426;2023-01-28T03:32:02;103015.66;;;0.44;100.00
63006;BME280;53704;52.532;6.426;2023-01-28T03:34:46;103016.25;;;0.22;100.00
63006;BME280;53704;52.532;6.426;2023-01-28T03:37:31;103019.03;;;0.19;100.00
63006;BME280;53704;52.532;6.426;2023-01-28T03:40:04;103019.00;;;0.21;100.00
63006;BME280;53704;52.532;6.426;2023-01-28T03:42:31;103023.19;;;0.28;100.00
63006;BME280;53704;52.532;6.426;2023-01-28T03:44:57;103030.59;;;0.15;100.00
63006;BME280;53704;52.532;6.426;2023-01-28T03:47:29;103019.19;;;0.13;100.00
63006;BME280;53704;52.532;6.426;2023-01-28T03:49:57;103015.16;;;0.31;100.00
63006;BME280;53704;52.532;6.426;2023-01-28T03:52:31;103019.50;;;0.33;100.00
63006;BME280;53704;52.532;6.426;2023-01-28T03:54:57;103031.19;;;0.26;100.00
63006;BME280;53704;52.532;6.426;2023-01-28T03:57:24;103020.31;;;0.35;100.00
63006;BME280;53704;52.532;6.426;2023-01-28T03:59:51;103029.50;;;0.22;100.00
63006;BME280;53704;52.532;6.426;2023-01-28T04:02:21;103022.63;;;0.48;100.00
63006;BME280;53704;52.532;6.426;2023-01-28T04:04:47;103028.25;;;0.04;100.00
63006;BME280;53704;52.532;6.426;2023-01-28T04:07:14;103030.72;;;0.10;100.00
63006;BME280;53704;52.532;6.426;2023-01-28T04:09:40;103034.28;;;0.09;100.00
63006;BME280;53704;52.532;6.426;2023-01-28T04:12:05;103025.16;;;0.21;100.00
63006;BME280;53704;52.532;6.426;2023-01-28T04:14:31;103030.69;;;0.12;100.00
63006;BME280;53704;52.532;6.426;2023-01-28T04:16:57;103036.84;;;0.12;100.00
63006;BME280;53704;52.532;6.426;2023-01-28T04:19:23;103036.00;;;0.12;100.00
63006;BME280;53704;52.532;6.426;2023-01-28T04:21:48;103038.56;;;0.15;100.00
63006;BME280;53704;52.532;6.426;2023-01-28T04:24:15;103042.94;;;0.47;100.00
63006;BME280;53704;52.532;6.426;2023-01-28T04:26:41;103040.91;;;0.57;100.00
63006;BME280;53704;52.532;6.426;2023-01-28T04:29:06;103058.53;;;0.27;100.00
63006;BME280;53704;52.532;6.426;2023-01-28T04:31:32;103053.31;;;0.24;100.00
63006;BME280;53704;52.532;6.426;2023-01-28T04:33:58;103062.47;;;0.12;100.00
63006;BME280;53704;52.532;6.426;2023-01-28T04:36:24;103057.22;;;0.10;100.00
63006;BME280;53704;52.532;6.426;2023-01-28T04:38:50;103060.72;;;0.11;100.00
63006;BME280;53704;52.532;6.426;2023-01-28T04:41:15;103042.78;;;0.53;100.00
63006;BME280;53704;52.532;6.426;2023-01-28T04:43:41;103056.00;;;0.22;100.00
63006;BME280;53704;52.532;6.426;2023-01-28T04:46:06;103057.41;;;0.03;100.00
63006;BME280;53704;52.532;6.426;2023-01-28T04:48:32;103061.38;;;-0.14;100.00
63006;BME280;53704;52.532;6.426;2023-01-28T04:50:59;103066.06;;;-0.24;100.00
63006;BME280;53704;52.532;6.426;2023-01-28T04:53:25;103070.47;;;-0.24;100.00
63006;BME280;53704;52.532;6.426;2023-01-28T04:55:50;103060.66;;;-0.21;100.00
63006;BME280;53704;52.532;6.426;2023-01-28T04:58:16;103058.06;;;-0.22;100.00
63006;BME280;53704;52.532;6.426;2023-01-28T05:00:41;103053.78;;;-0.28;100.00
63006;BME280;53704;52.532;6.426;2023-01-28T05:03:07;103036.72;;;-0.16;100.00
63006;BME280;53704;52.532;6.426;2023-01-28T05:05:32;103039.56;;;0.09;100.00
63006;BME280;53704;52.532;6.426;2023-01-28T05:07:58;103040.19;;;0.21;100.00
63006;BME280;53704;52.532;6.426;2023-01-28T05:10:25;103038.63;;;0.45;100.00
63006;BME280;53704;52.532;6.426;2023-01-28T05:12:50;103031.09;;;-0.04;100.00
63006;BME280;53704;52.532;6.426;2023-01-28T05:15:16;103043.31;;;0.02;100.00
63006;BME280;53704;52.532;6.426;2023-01-28T05:17:42;103033.81;;;0.26;100.00
63006;BME280;53704;52.532;6.426;2023-01-28T05:20:09;103041.97;;;0.18;100.00
63006;BME280;53704;52.532;6.426;2023-01-28T05:22:35;103029.66;;;0.17;100.00
63006;BME280;53704;52.532;6.426;2023-01-28T05:25:01;103031.34;;;-0.13;100.00
63006;BME280;53704;52.532;6.426;2023-01-28T05:27:28;103029.66;;;-0.15;100.00
63006;BME280;53704;52.532;6.426;2023-01-28T05:29:54;103029.78;;;0.13;100.00
63006;BME280;53704;52.532;6.426;2023-01-28T05:32:20;103027.88;;;-0.15;100.00
63006;BME280;53704;52.532;6.426;2023-01-28T05:34:45;103039.09;;;-0.05;100.00
63006;BME280;53704;52.532;6.426;2023-01-28T05:37:11;103036.75;;;0.15;100.00
63006;BME280;53704;52.532;6.426;2023-01-28T05:39:36;103035.84;;;-0.16;100.00
63006;BME280;53704;52.532;6.426;2023-01-28T05:42:02;103038.88;;;0.03;100.00
63006;BME280;53704;52.532;6.426;2023-01-28T05:44:27;103046.38;;;-0.13;100.00
63006;BME280;53704;52.532;6.426;2023-01-28T05:46:53;103045.19;;;-0.02;100.00
63006;BME280;53704;52.532;6.426;2023-01-28T05:49:18;103031.34;;;-0.13;100.00
63006;BME280;53704;52.532;6.426;2023-01-28T05:51:43;103046.41;;;-0.15;100.00
63006;BME280;53704;52.532;6.426;2023-01-28T05:54:09;103041.56;;;0.01;100.00
63006;BME280;53704;52.532;6.426;2023-01-28T05:56:34;103017.75;;;0.32;100.00
63006;BME280;53704;52.532;6.426;2023-01-28T05:59:01;103030.59;;;0.15;100.00
63006;BME280;53704;52.532;6.426;2023-01-28T06:01:26;103032.00;;;-0.03;100.00
63006;BME280;53704;52.532;6.426;2023-01-28T06:03:52;103031.50;;;0.14;100.00
63006;BME280;53704;52.532;6.426;2023-01-28T06:06:17;103026.78;;;0.25;100.00
63006;BME280;53704;52.532;6.426;2023-01-28T06:08:43;103026.09;;;0.18;100.00
63006;BME280;53704;52.532;6.426;2023-01-28T06:11:08;103022.69;;;0.13;100.00
63006;BME280;53704;52.532;6.426;2023-01-28T06:13:34;103020.06;;;0.45;100.00
63006;BME280;53704;52.532;6.426;2023-01-28T06:15:59;103017.78;;;0.92;100.00
63006;BME280;53704;52.532;6.426;2023-01-28T06:18:25;103012.56;;;0.89;100.00
63006;BME280;53704;52.532;6.426;2023-01-28T06:20:51;103020.75;;;0.81;100.00
63006;BME280;53704;52.532;6.426;2023-01-28T06:23:17;103015.91;;;0.66;100.00
63006;BME280;53704;52.532;6.426;2023-01-28T06:25:42;103018.69;;;0.61;100.00
63006;BME280;53704;52.532;6.426;2023-01-28T06:28:08;103023.56;;;0.14;100.00
63006;BME280;53704;52.532;6.426;2023-01-28T06:30:33;103027.06;;;0.16;100.00
63006;BME280;53704;52.532;6.426;2023-01-28T06:32:59;103022.91;;;0.06;100.00
63006;BME280;53704;52.532;6.426;2023-01-28T06:35:24;103028.22;;;0.06;100.00
63006;BME280;53704;52.532;6.426;2023-01-28T06:37:50;103037.78;;;0.11;100.00
63006;BME280;53704;52.532;6.426;2023-01-28T06:40:17;103038.97;;;-0.01;100.00
63006;BME280;53704;52.532;6.426;2023-01-28T06:42:42;103030.88;;;0.37;100.00
63006;BME280;53704;52.532;6.426;2023-01-28T06:45:08;103032.22;;;0.52;100.00
63006;BME280;53704;52.532;6.426;2023-01-28T06:47:33;103040.16;;;0.52;100.00
63006;BME280;53704;52.532;6.426;2023-01-28T06:49:58;103046.41;;;0.18;100.00
63006;BME280;53704;52.532;6.426;2023-01-28T06:52:24;103045.66;;;-0.20;100.00
63006;BME280;53704;52.532;6.426;2023-01-28T06:54:49;103052.53;;;0.20;100.00
63006;BME280;53704;52.532;6.426;2023-01-28T06:57:15;103047.06;;;-0.07;100.00
63006;BME280;53704;52.532;6.426;2023-01-28T06:59:40;103059.09;;;0.07;100.00
63006;BME280;53704;52.532;6.426;2023-01-28T07:02:05;103054.38;;;0.18;100.00
63006;BME280;53704;52.532;6.426;2023-01-28T07:04:31;103059.22;;;0.02;100.00
63006;BME280;53704;52.532;6.426;2023-01-28T07:06:56;103065.75;;;-0.13;100.00
63006;BME280;53704;52.532;6.426;2023-01-28T07:09:21;103065.28;;;-0.29;100.00
63006;BME280;53704;52.532;6.426;2023-01-28T07:11:47;103063.31;;;-0.21;100.00
63006;BME280;53704;52.532;6.426;2023-01-28T07:14:12;103065.78;;;0.20;100.00
63006;BME280;53704;52.532;6.426;2023-01-28T07:16:38;103062.81;;;0.32;100.00
63006;BME280;53704;52.532;6.426;2023-01-28T07:19:03;103063.34;;;0.12;100.00
63006;BME280;53704;52.532;6.426;2023-01-28T07:21:28;103063.88;;;0.25;100.00
63006;BME280;53704;52.532;6.426;2023-01-28T07:23:54;103059.47;;;0.57;100.00
63006;BME280;53704;52.532;6.426;2023-01-28T07:26:20;103057.03;;;0.81;100.00
63006;BME280;53704;52.532;6.426;2023-01-28T07:28:45;103065.94;;;0.47;100.00
63006;BME280;53704;52.532;6.426;2023-01-28T07:31:11;103069.69;;;0.69;100.00
63006;BME280;53704;52.532;6.426;2023-01-28T07:33:36;103074.94;;;0.41;100.00
63006;BME280;53704;52.532;6.426;2023-01-28T07:36:01;103083.78;;;0.40;100.00
63006;BME280;53704;52.532;6.426;2023-01-28T07:38:27;103103.75;;;0.21;100.00
63006;BME280;53704;52.532;6.426;2023-01-28T07:40:52;103108.91;;;-0.08;100.00
63006;BME280;53704;52.532;6.426;2023-01-28T07:43:18;103100.38;;;0.14;100.00
63006;BME280;53704;52.532;6.426;2023-01-28T07:45:43;103102.06;;;0.51;100.00
63006;BME280;53704;52.532;6.426;2023-01-28T07:48:11;103107.88;;;0.31;100.00
63006;BME280;53704;52.532;6.426;2023-01-28T07:50:37;103114.53;;;0.46;100.00
63006;BME280;53704;52.532;6.426;2023-01-28T07:53:05;103118.59;;;0.26;100.00
63006;BME280;53704;52.532;6.426;2023-01-28T07:55:31;103103.03;;;0.47;100.00
63006;BME280;53704;52.532;6.426;2023-01-28T07:58:00;103102.13;;;0.48;100.00
63006;BME280;53704;52.532;6.426;2023-01-28T08:00:28;103098.97;;;0.35;100.00
63006;BME280;53704;52.532;6.426;2023-01-28T08:02:56;103095.09;;;0.47;100.00
63006;BME280;53704;52.532;6.426;2023-01-28T08:05:21;103089.19;;;0.37;100.00
63006;BME280;53704;52.532;6.426;2023-01-28T08:07:47;103088.22;;;0.07;100.00
63006;BME280;53704;52.532;6.426;2023-01-28T08:10:14;103098.69;;;0.44;100.00
63006;BME280;53704;52.532;6.426;2023-01-28T08:12:50;103093.94;;;0.57;100.00
63006;BME280;53704;52.532;6.426;2023-01-28T08:15:15;103092.56;;;0.74;100.00
63006;BME280;53704;52.532;6.426;2023-01-28T08:17:41;103089.03;;;0.75;100.00
63006;BME280;53704;52.532;6.426;2023-01-28T08:20:07;103095.69;;;0.57;100.00
63006;BME280;53704;52.532;6.426;2023-01-28T08:22:34;103085.34;;;1.08;100.00
63006;BME280;53704;52.532;6.426;2023-01-28T08:24:59;103090.34;;;0.89;100.00
63006;BME280;53704;52.532;6.426;2023-01-28T08:27:24;103082.69;;;1.08;100.00
63006;BME280;53704;52.532;6.426;2023-01-28T08:29:50;103091.47;;;1.11;100.00
63006;BME280;53704;52.532;6.426;2023-01-28T08:32:15;103095.09;;;1.08;100.00
63006;BME280;53704;52.532;6.426;2023-01-28T08:34:41;103096.53;;;0.88;100.00
63006;BME280;53704;52.532;6.426;2023-01-28T08:37:06;103083.44;;;0.84;100.00
63006;BME280;53704;52.532;6.426;2023-01-28T08:39:32;103080.03;;;0.79;100.00
63006;BME280;53704;52.532;6.426;2023-01-28T08:41:57;103084.31;;;0.84;100.00
63006;BME280;53704;52.532;6.426;2023-01-28T08:44:23;103087.50;;;0.96;100.00
63006;BME280;53704;52.532;6.426;2023-01-28T08:46:48;103097.38;;;0.90;100.00
63006;BME280;53704;52.532;6.426;2023-01-28T08:49:13;103095.34;;;1.00;100.00
63006;BME280;53704;52.532;6.426;2023-01-28T08:51:39;103115.78;;;0.97;100.00
63006;BME280;53704;52.532;6.426;2023-01-28T08:54:04;103127.25;;;0.66;100.00
63006;BME280;53704;52.532;6.426;2023-01-28T08:56:30;103130.47;;;0.77;100.00
63006;BME280;53704;52.532;6.426;2023-01-28T08:58:55;103114.94;;;0.95;100.00
63006;BME280;53704;52.532;6.426;2023-01-28T09:01:20;103117.72;;;1.20;100.00
63006;BME280;53704;52.532;6.426;2023-01-28T09:03:46;103114.63;;;1.05;100.00
63006;BME280;53704;52.532;6.426;2023-01-28T09:06:11;103120.38;;;1.20;100.00
63006;BME280;53704;52.532;6.426;2023-01-28T09:08:37;103134.13;;;1.04;100.00
63006;BME280;53704;52.532;6.426;2023-01-28T09:11:02;103132.84;;;1.18;100.00
63006;BME280;53704;52.532;6.426;2023-01-28T09:13:28;103129.09;;;1.25;100.00
63006;BME280;53704;52.532;6.426;2023-01-28T09:15:54;103150.09;;;1.03;100.00
63006;BME280;53704;52.532;6.426;2023-01-28T09:18:20;103157.47;;;0.92;100.00
63006;BME280;53704;52.532;6.426;2023-01-28T09:20:45;103149.31;;;0.66;100.00
63006;BME280;53704;52.532;6.426;2023-01-28T09:23:11;103146.34;;;0.46;100.00
63006;BME280;53704;52.532;6.426;2023-01-28T09:25:37;103149.59;;;0.88;100.00
63006;BME280;53704;52.532;6.426;2023-01-28T09:28:03;103140.19;;;1.08;100.00
63006;BME280;53704;52.532;6.426;2023-01-28T09:30:29;103146.28;;;1.12;100.00
63006;BME280;53704;52.532;6.426;2023-01-28T09:32:55;103153.72;;;0.99;100.00
63006;BME280;53704;52.532;6.426;2023-01-28T09:35:22;103168.97;;;0.92;100.00
63006;BME280;53704;52.532;6.426;2023-01-28T09:37:47;103161.69;;;0.67;100.00
63006;BME280;53704;52.532;6.426;2023-01-28T09:40:19;103162.16;;;0.82;100.00
63006;BME280;53704;52.532;6.426;2023-01-28T09:45:36;103165.28;;;0.96;100.00
63006;BME280;53704;52.532;6.426;2023-01-28T09:48:07;103161.44;;;0.77;100.00
63006;BME280;53704;52.532;6.426;2023-01-28T09:50:37;103155.91;;;0.84;100.00
63006;BME280;53704;52.532;6.426;2023-01-28T09:53:10;103167.41;;;1.15;100.00
63006;BME280;53704;52.532;6.426;2023-01-28T09:55:40;103172.13;;;1.05;100.00
63006;BME280;53704;52.532;6.426;2023-01-28T09:58:13;103164.94;;;1.08;100.00
63006;BME280;53704;52.532;6.426;2023-01-28T10:04:00;103163.19;;;1.07;100.00
63006;BME280;53704;52.532;6.426;2023-01-28T10:12:00;103180.34;;;0.96;100.00
63006;BME280;53704;52.532;6.426;2023-01-28T10:19:59;103165.38;;;0.93;100.00
63006;BME280;53704;52.532;6.426;2023-01-28T10:22:43;103158.22;;;1.26;100.00
63006;BME280;53704;52.532;6.426;2023-01-28T10:25:23;103151.53;;;1.43;100.00
63006;BME280;53704;52.532;6.426;2023-01-28T10:27:50;103153.09;;;1.49;100.00
63006;BME280;53704;52.532;6.426;2023-01-28T10:30:25;103143.63;;;1.41;100.00
63006;BME280;53704;52.532;6.426;2023-01-28T10:35:16;103139.66;;;1.55;100.00
63006;BME280;53704;52.532;6.426;2023-01-28T10:37:41;103134.00;;;1.66;100.00
63006;BME280;53704;52.532;6.426;2023-01-28T10:40:17;103132.28;;;1.65;100.00
63006;BME280;53704;52.532;6.426;2023-01-28T10:42:43;103137.97;;;1.80;100.00
63006;BME280;53704;52.532;6.426;2023-01-28T10:45:19;103130.19;;;1.74;100.00
63006;BME280;53704;52.532;6.426;2023-01-28T10:47:57;103126.06;;;1.92;100.00
63006;BME280;53704;52.532;6.426;2023-01-28T10:50:28;103109.44;;;1.59;100.00
63006;BME280;53704;52.532;6.426;2023-01-28T10:52:58;103112.28;;;1.81;100.00
63006;BME280;53704;52.532;6.426;2023-01-28T10:58:20;103091.63;;;1.89;100.00
63006;BME280;53704;52.532;6.426;2023-01-28T11:00:52;103079.00;;;2.21;100.00
63006;BME280;53704;52.532;6.426;2023-01-28T11:03:19;103073.31;;;2.07;100.00
63006;BME280;53704;52.532;6.426;2023-01-28T11:06:04;103071.34;;;2.12;100.00
63006;BME280;53704;52.532;6.426;2023-01-28T11:08:29;103074.41;;;2.01;100.00
63006;BME280;53704;52.532;6.426;2023-01-28T11:10:56;103065.41;;;2.05;100.00
63006;BME280;53704;52.532;6.426;2023-01-28T11:13:28;103051.75;;;2.16;100.00
63006;BME280;53704;52.532;6.426;2023-01-28T11:18:30;103056.09;;;2.19;100.00
63006;BME280;53704;52.532;6.426;2023-01-28T11:20:59;103043.38;;;2.27;100.00
63006;BME280;53704;52.532;6.426;2023-01-28T11:23:35;103043.47;;;2.49;100.00
63006;BME280;53704;52.532;6.426;2023-01-28T11:26:13;103031.47;;;2.37;100.00
63006;BME280;53704;52.532;6.426;2023-01-28T11:28:42;103012.19;;;2.56;100.00
63006;BME280;53704;52.532;6.426;2023-01-28T11:31:10;103018.03;;;2.65;100.00
63006;BME280;53704;52.532;6.426;2023-01-28T11:33:42;103013.00;;;2.58;100.00
63006;BME280;53704;52.532;6.426;2023-01-28T11:36:25;103019.53;;;2.72;100.00
63006;BME280;53704;52.532;6.426;2023-01-28T11:41:18;103040.66;;;2.53;100.00
63006;BME280;53704;52.532;6.426;2023-01-28T11:43:47;103035.88;;;2.85;100.00
63006;BME280;53704;52.532;6.426;2023-01-28T11:52:04;103042.66;;;2.94;100.00
63006;BME280;53704;52.532;6.426;2023-01-28T11:54:34;103048.34;;;2.85;100.00
63006;BME280;53704;52.532;6.426;2023-01-28T11:57:12;103053.03;;;3.00;100.00
63006;BME280;53704;52.532;6.426;2023-01-28T11:59:55;103041.63;;;2.75;100.00
63006;BME280;53704;52.532;6.426;2023-01-28T12:05:31;103027.19;;;3.04;100.00
63006;BME280;53704;52.532;6.426;2023-01-28T12:08:08;103043.56;;;2.93;100.00
63006;BME280;53704;52.532;6.426;2023-01-28T12:10:52;103045.47;;;3.13;100.00
63006;BME280;53704;52.532;6.426;2023-01-28T12:16:14;103051.38;;;2.98;100.00
63006;BME280;53704;52.532;6.426;2023-01-28T12:18:46;103056.47;;;3.04;100.00
63006;BME280;53704;52.532;6.426;2023-01-28T12:21:38;103053.09;;;2.99;100.00
63006;BME280;53704;52.532;6.426;2023-01-28T12:24:14;103049.31;;;3.28;100.00
63006;BME280;53704;52.532;6.426;2023-01-28T12:42:39;103021.91;;;3.69;100.00
63006;BME280;53704;52.532;6.426;2023-01-28T12:45:43;103019.13;;;3.92;100.00
63006;BME280;53704;52.532;6.426;2023-01-28T12:51:07;102998.69;;;4.12;100.00
63006;BME280;53704;52.532;6.426;2023-01-28T12:53:56;102985.84;;;3.80;100.00
63006;BME280;53704;52.532;6.426;2023-01-28T12:56:35;102975.81;;;4.27;100.00
63006;BME280;53704;52.532;6.426;2023-01-28T12:59:15;102975.19;;;4.41;100.00
63006;BME280;53704;52.532;6.426;2023-01-28T13:01:51;102977.16;;;4.16;100.00
63006;BME280;53704;52.532;6.426;2023-01-28T13:10:00;102946.06;;;4.36;100.00
63006;BME280;53704;52.532;6.426;2023-01-28T13:12:30;102941.75;;;4.33;100.00
63006;BME280;53704;52.532;6.426;2023-01-28T13:14:58;102933.00;;;4.49;100.00
63006;BME280;53704;52.532;6.426;2023-01-28T13:17:29;102943.75;;;4.28;100.00
63006;BME280;53704;52.532;6.426;2023-01-28T13:19:55;102961.41;;;4.50;100.00
63006;BME280;53704;52.532;6.426;2023-01-28T13:22:33;102973.75;;;4.33;100.00
63006;BME280;53704;52.532;6.426;2023-01-28T13:25:21;102992.03;;;4.02;100.00
63006;BME280;53704;52.532;6.426;2023-01-28T13:27:58;102976.56;;;4.30;100.00
63006;BME280;53704;52.532;6.426;2023-01-28T13:30:27;102983.19;;;4.41;100.00
63006;BME280;53704;52.532;6.426;2023-01-28T13:32:59;102973.91;;;4.68;100.00
63006;BME280;53704;52.532;6.426;2023-01-28T13:35:49;102969.78;;;4.61;100.00
63006;BME280;53704;52.532;6.426;2023-01-28T13:38:18;102962.34;;;4.68;100.00
63006;BME280;53704;52.532;6.426;2023-01-28T13:40:54;102973.28;;;4.24;100.00
63006;BME280;53704;52.532;6.426;2023-01-28T13:46:27;102969.69;;;4.44;100.00
63006;BME280;53704;52.532;6.426;2023-01-28T13:48:55;102964.66;;;4.57;100.00
63006;BME280;53704;52.532;6.426;2023-01-28T13:51:25;102979.72;;;4.39;100.00
63006;BME280;53704;52.532;6.426;2023-01-28T13:54:03;102973.69;;;4.54;100.00
63006;BME280;53704;52.532;6.426;2023-01-28T13:56:38;102975.25;;;4.58;100.00
63006;BME280;53704;52.532;6.426;2023-01-28T14:04:55;102982.75;;;4.31;100.00
63006;BME280;53704;52.532;6.426;2023-01-28T14:07:39;102987.94;;;4.53;100.00
63006;BME280;53704;52.532;6.426;2023-01-28T14:11:08;102991.03;;;4.44;100.00
63006;BME280;53704;52.532;6.426;2023-01-28T14:13:37;102995.09;;;4.71;100.00
63006;BME280;53704;52.532;6.426;2023-01-28T14:18:56;102982.81;;;4.29;100.00
63006;BME280;53704;52.532;6.426;2023-01-28T14:21:25;102980.78;;;3.74;100.00
63006;BME280;53704;52.532;6.426;2023-01-28T14:23:53;102972.59;;;3.79;100.00
63006;BME280;53704;52.532;6.426;2023-01-28T14:29:11;102972.44;;;4.42;100.00
63006;BME280;53704;52.532;6.426;2023-01-28T14:31:40;102973.22;;;4.44;100.00
63006;BME280;53704;52.532;6.426;2023-01-28T14:36:36;102983.59;;;3.92;100.00
63006;BME280;53704;52.532;6.426;2023-01-28T14:39:02;102984.81;;;3.85;100.00
63006;BME280;53704;52.532;6.426;2023-01-28T14:41:27;102987.13;;;3.72;100.00